Desbarats, Canada
Current Conditions -  °F | °C
As of 4:15 PM on Saturday 22 Nov 2014 (Local Time) from KDRM Reporting Station
Haze Haze  
Wind Chill: 38°   Ceiling: 700
Heat Index: 38°   Visibility: 5mi
Dew Point: 36°   Wind: 3mph
Humidity: 92%   Direction: 240°WSW
Pressure: 29.75"   Gusts: NA
Location:  46.33°N, 83.93°W
Report Text: KDRM 222115Z AUTO 24003KT 5SM BR OVC007 04/02 A2975 RMK AO2 T00350023
Loading
Personal Weather Stations






























Interactive Weather Map New forecast layout! Learn more

10-Day Weather Forecast

Advertisements
Track Severe Weather on mobile